createdAt,value
2018-03-30T04:00:45.455Z,999.01
2018-03-30T04:01:10.923Z,998.97
2018-03-30T04:01:36.401Z,998.98
2018-03-30T04:02:01.850Z,999.02
2018-03-30T04:02:27.319Z,998.97
2018-03-30T04:02:52.768Z,998.98
2018-03-30T04:03:18.212Z,998.97
2018-03-30T04:03:43.670Z,998.98
2018-03-30T04:04:09.155Z,998.98
2018-03-30T04:04:34.599Z,999.03
2018-03-30T04:05:00.083Z,999.02
2018-03-30T04:05:25.566Z,998.96
2018-03-30T04:05:51.070Z,998.98
2018-03-30T04:06:16.551Z,998.99
2018-03-30T04:06:42.022Z,998.96
2018-03-30T04:07:07.522Z,998.97
2018-03-30T04:07:32.973Z,999.03
2018-03-30T04:07:58.453Z,998.98
2018-03-30T04:08:23.907Z,999.01
2018-03-30T04:08:49.370Z,998.98
2018-03-30T04:09:14.858Z,999
2018-03-30T04:09:40.297Z,998.99
2018-03-30T04:10:05.800Z,998.95
2018-03-30T04:10:31.278Z,998.98
2018-03-30T04:10:56.763Z,998.94
2018-03-30T04:11:22.187Z,998.92
2018-03-30T04:11:47.660Z,998.95
2018-03-30T04:12:13.132Z,998.94
2018-03-30T04:12:38.636Z,998.92
2018-03-30T04:13:04.061Z,998.92
2018-03-30T04:13:29.537Z,998.93
2018-03-30T04:13:55.048Z,998.93
2018-03-30T04:14:20.573Z,998.93
2018-03-30T04:14:46.019Z,998.88
2018-03-30T04:15:11.483Z,998.9
2018-03-30T04:15:36.964Z,998.95
2018-03-30T04:16:02.485Z,998.9
2018-03-30T04:16:27.926Z,998.88
2018-03-30T04:16:53.355Z,998.9
2018-03-30T04:17:18.895Z,998.89
2018-03-30T04:17:44.348Z,998.97
2018-03-30T04:18:09.824Z,998.88
2018-03-30T04:18:35.274Z,998.88
2018-03-30T04:19:00.740Z,998.87
2018-03-30T04:19:26.238Z,998.91
2018-03-30T04:19:51.688Z,998.87
2018-03-30T04:20:17.135Z,998.94
2018-03-30T04:20:42.611Z,998.86
2018-03-30T04:21:08.103Z,998.85
2018-03-30T04:21:33.578Z,998.83
2018-03-30T04:21:59.090Z,998.83
2018-03-30T04:22:24.558Z,998.83
2018-03-30T04:22:50.046Z,998.85
2018-03-30T04:23:15.494Z,998.86
2018-03-30T04:23:40.975Z,998.83
2018-03-30T04:24:06.436Z,998.83
2018-03-30T04:24:31.925Z,998.83
2018-03-30T04:24:57.355Z,998.84
2018-03-30T04:25:22.810Z,998.84
2018-03-30T04:25:48.275Z,998.8
2018-03-30T04:26:13.777Z,998.82
2018-03-30T04:26:39.277Z,998.81
2018-03-30T04:27:04.697Z,998.84
2018-03-30T04:27:30.168Z,998.82
2018-03-30T04:27:55.662Z,998.84
2018-03-30T04:28:21.080Z,998.83
2018-03-30T04:28:46.546Z,998.81
2018-03-30T04:29:11.983Z,998.82
2018-03-30T04:29:37.452Z,998.79
2018-03-30T04:30:02.894Z,998.81
2018-03-30T04:30:28.352Z,998.8
2018-03-30T04:30:53.822Z,998.81
2018-03-30T04:31:19.258Z,998.77
2018-03-30T04:31:44.732Z,998.79
2018-03-30T04:32:10.226Z,998.79
2018-03-30T04:32:35.651Z,998.78
2018-03-30T04:33:01.148Z,998.79
2018-03-30T04:33:26.629Z,998.77
2018-03-30T04:33:52.157Z,998.77
2018-03-30T04:34:17.635Z,998.77
2018-03-30T04:34:43.135Z,998.77
2018-03-30T04:35:08.594Z,998.77
2018-03-30T04:35:34.131Z,998.73
2018-03-30T04:35:59.616Z,998.7
2018-03-30T04:36:25.183Z,998.71
2018-03-30T04:36:50.623Z,998.66
2018-03-30T04:37:16.101Z,998.72
2018-03-30T04:37:41.567Z,998.77
2018-03-30T04:38:07.066Z,998.7
2018-03-30T04:38:32.647Z,998.67
2018-03-30T04:38:58.072Z,998.65
2018-03-30T04:39:23.527Z,998.69
2018-03-30T04:39:49.100Z,998.66
2018-03-30T04:40:14.621Z,998.64
2018-03-30T04:40:40.063Z,998.65
2018-03-30T04:41:05.563Z,998.69
2018-03-30T04:41:31.048Z,998.68
2018-03-30T04:41:56.542Z,998.69
2018-03-30T04:42:22.045Z,998.7
2018-03-30T04:42:47.523Z,998.72
2018-03-30T04:43:13.021Z,998.67
2018-03-30T04:43:38.486Z,998.72
2018-03-30T04:44:04.030Z,998.68
2018-03-30T04:44:29.456Z,998.71
2018-03-30T04:44:54.972Z,998.65
2018-03-30T04:45:20.392Z,998.7
2018-03-30T04:45:45.861Z,998.65
2018-03-30T04:46:11.381Z,998.65
2018-03-30T04:46:36.870Z,998.65
2018-03-30T04:47:02.363Z,998.62
2018-03-30T04:47:27.828Z,998.68
2018-03-30T04:47:53.301Z,998.62
2018-03-30T04:48:18.732Z,998.61
2018-03-30T04:48:44.246Z,998.62
2018-03-30T04:49:09.733Z,998.66
2018-03-30T04:49:35.178Z,998.61
2018-03-30T04:50:48.956Z,998.62
2018-03-30T04:51:14.413Z,998.64
2018-03-30T04:51:39.882Z,998.63
2018-03-30T04:52:05.367Z,998.63
2018-03-30T04:52:30.804Z,998.63
2018-03-30T04:52:56.302Z,998.68
2018-03-30T04:53:21.759Z,998.67
2018-03-30T04:53:47.246Z,998.63
2018-03-30T04:54:12.735Z,998.63
2018-03-30T04:54:38.255Z,998.64
2018-03-30T04:55:03.661Z,998.64
2018-03-30T04:55:29.157Z,998.59
2018-03-30T04:55:54.646Z,998.63
2018-03-30T04:56:20.082Z,998.62
2018-03-30T04:56:45.596Z,998.57
2018-03-30T04:57:11.025Z,998.6
2018-03-30T04:57:36.524Z,998.64
2018-03-30T04:58:02.077Z,998.58
2018-03-30T04:58:27.609Z,998.63
2018-03-30T04:58:53.122Z,998.58
2018-03-30T04:59:18.569Z,998.59
2018-03-30T04:59:44.046Z,998.55
2018-03-30T05:00:09.513Z,998.6
2018-03-30T05:00:35.012Z,998.55
2018-03-30T05:01:00.477Z,998.54
2018-03-30T05:01:25.951Z,998.57
2018-03-30T05:01:51.447Z,998.57
2018-03-30T05:02:17.022Z,998.57
2018-03-30T05:02:42.512Z,998.54
2018-03-30T05:03:08.033Z,998.53
2018-03-30T05:03:33.498Z,998.59
2018-03-30T05:03:58.991Z,998.59
2018-03-30T05:04:24.497Z,998.54
2018-03-30T05:04:49.979Z,998.56
2018-03-30T05:05:15.479Z,998.59
2018-03-30T05:05:40.947Z,998.52
2018-03-30T05:06:06.409Z,998.53
2018-03-30T05:06:31.918Z,998.51
2018-03-30T05:06:57.368Z,998.54
2018-03-30T05:07:22.838Z,998.54
2018-03-30T05:07:48.347Z,998.52
2018-03-30T05:08:13.782Z,998.54
2018-03-30T05:08:39.272Z,998.54
2018-03-30T05:09:04.732Z,998.55
2018-03-30T05:09:30.269Z,998.54
2018-03-30T05:09:55.693Z,998.57
2018-03-30T05:10:21.196Z,998.53
2018-03-30T05:10:46.728Z,998.54
2018-03-30T05:11:12.193Z,998.52
2018-03-30T05:11:37.718Z,998.56
2018-03-30T05:12:03.163Z,998.53
2018-03-30T05:12:28.661Z,998.51
2018-03-30T05:12:54.133Z,998.54
2018-03-30T05:13:19.620Z,998.53
2018-03-30T05:13:45.120Z,998.48
2018-03-30T05:14:10.628Z,998.5
2018-03-30T05:14:36.070Z,998.51
2018-03-30T05:15:01.573Z,998.55
2018-03-30T05:15:27.062Z,998.55
2018-03-30T05:15:52.571Z,998.56
2018-03-30T05:16:18.051Z,998.48
2018-03-30T05:16:43.515Z,998.55
2018-03-30T05:17:09.032Z,998.52
2018-03-30T05:17:34.480Z,998.55
2018-03-30T05:17:59.997Z,998.53
2018-03-30T05:18:25.480Z,998.53
2018-03-30T05:18:50.909Z,998.56
2018-03-30T05:19:16.342Z,998.54
2018-03-30T05:19:41.836Z,998.55
2018-03-30T05:20:07.254Z,998.54
2018-03-30T05:20:32.761Z,998.52
2018-03-30T05:21:41.463Z,998.54
2018-03-30T05:22:06.914Z,998.56
2018-03-30T05:22:32.393Z,998.53
2018-03-30T05:22:57.867Z,998.57
2018-03-30T05:23:23.357Z,998.52
2018-03-30T05:23:48.922Z,998.54
2018-03-30T05:24:14.330Z,998.57
2018-03-30T05:24:39.793Z,998.56
2018-03-30T05:25:05.256Z,998.53
2018-03-30T05:25:30.736Z,998.57
2018-03-30T05:25:56.187Z,998.56
2018-03-30T05:26:21.673Z,998.57
2018-03-30T05:26:47.150Z,998.61
2018-03-30T05:27:12.706Z,998.58
2018-03-30T05:27:38.134Z,998.61
2018-03-30T05:28:03.634Z,998.61
2018-03-30T05:28:29.060Z,998.61
2018-03-30T05:28:54.591Z,998.63
2018-03-30T05:29:20.006Z,998.65
2018-03-30T05:29:45.465Z,998.65
2018-03-30T05:30:10.937Z,998.67
2018-03-30T05:30:36.392Z,998.66
2018-03-30T05:31:01.833Z,998.73
2018-03-30T05:31:27.298Z,998.72
2018-03-30T05:31:52.764Z,998.75
2018-03-30T05:32:18.223Z,998.77
2018-03-30T05:32:43.669Z,998.86
2018-03-30T05:33:09.116Z,998.86
2018-03-30T05:33:34.577Z,998.9
2018-03-30T05:34:00.024Z,998.94
2018-03-30T05:34:25.514Z,998.92
2018-03-30T05:34:51.002Z,998.89
2018-03-30T05:35:16.516Z,998.95
2018-03-30T05:35:42.010Z,998.98
2018-03-30T05:36:07.423Z,998.96
2018-03-30T05:36:32.890Z,998.99
2018-03-30T05:36:58.382Z,998.98
2018-03-30T05:37:23.826Z,998.94
2018-03-30T05:37:49.251Z,998.95
2018-03-30T05:38:14.745Z,998.92
2018-03-30T05:39:28.565Z,998.84
2018-03-30T05:39:54.036Z,998.84
2018-03-30T05:40:19.508Z,998.85
2018-03-30T05:40:44.980Z,998.85
2018-03-30T05:41:10.450Z,998.8
2018-03-30T05:41:35.871Z,998.78
2018-03-30T05:42:01.370Z,998.79
2018-03-30T05:42:26.768Z,998.78
2018-03-30T05:42:52.239Z,998.85
2018-03-30T05:43:17.687Z,998.82
2018-03-30T05:43:43.161Z,998.87
2018-03-30T05:44:08.610Z,998.86
2018-03-30T05:44:34.071Z,998.83
2018-03-30T05:44:59.537Z,998.85
2018-03-30T05:45:24.961Z,998.88
2018-03-30T05:45:50.424Z,998.91
2018-03-30T05:46:15.950Z,998.9
2018-03-30T05:46:41.348Z,998.95
2018-03-30T05:47:06.832Z,998.93
2018-03-30T05:47:32.331Z,998.94
2018-03-30T05:47:57.743Z,998.95
2018-03-30T05:48:23.192Z,998.94
2018-03-30T05:48:48.667Z,998.93
2018-03-30T05:49:14.156Z,998.96
2018-03-30T05:49:39.612Z,998.92
2018-03-30T05:50:05.096Z,998.91
2018-03-30T05:50:30.528Z,998.9
2018-03-30T05:50:56.029Z,998.9
2018-03-30T05:51:21.524Z,998.87
2018-03-30T05:51:46.996Z,998.82
2018-03-30T05:52:12.470Z,998.85
2018-03-30T05:52:37.970Z,998.85
2018-03-30T05:53:03.446Z,998.86
2018-03-30T05:53:28.904Z,998.84
2018-03-30T05:53:54.399Z,998.8
2018-03-30T05:54:19.869Z,998.8
2018-03-30T05:54:45.318Z,998.82
2018-03-30T05:55:10.776Z,998.8
2018-03-30T05:55:36.222Z,998.83
2018-03-30T05:56:01.729Z,998.81
2018-03-30T05:56:27.176Z,998.83
2018-03-30T05:56:52.600Z,998.81
2018-03-30T05:57:18.063Z,998.86
2018-03-30T05:57:43.497Z,998.88
2018-03-30T05:58:08.954Z,998.9
2018-03-30T05:58:34.408Z,998.83
2018-03-30T05:58:59.880Z,998.87
2018-03-30T05:59:25.336Z,998.86
2018-03-30T05:59:50.763Z,998.89
2018-03-30T06:00:16.231Z,998.9
2018-03-30T06:00:41.658Z,998.86
2018-03-30T06:01:07.106Z,998.88
2018-03-30T06:01:32.619Z,998.82
2018-03-30T06:01:58.114Z,998.87
2018-03-30T06:02:23.603Z,998.86
2018-03-30T06:02:49.040Z,998.89
2018-03-30T06:03:14.517Z,998.87
2018-03-30T06:03:39.971Z,998.89
2018-03-30T06:04:05.474Z,998.82
2018-03-30T06:04:30.955Z,998.84
2018-03-30T06:04:56.401Z,998.83
2018-03-30T06:05:21.893Z,998.82
2018-03-30T06:05:47.362Z,998.86
2018-03-30T06:06:12.824Z,998.83
2018-03-30T06:06:38.286Z,998.85
2018-03-30T06:07:03.710Z,998.8
2018-03-30T06:07:29.217Z,998.82
2018-03-30T06:07:54.693Z,998.84
2018-03-30T06:08:20.178Z,998.83
2018-03-30T06:08:45.678Z,998.85
2018-03-30T06:09:11.110Z,998.86
2018-03-30T06:09:36.579Z,998.85
2018-03-30T06:10:02.076Z,998.88
2018-03-30T06:10:27.500Z,998.88
2018-03-30T06:10:52.988Z,998.83
2018-03-30T06:11:18.570Z,998.86
2018-03-30T06:11:43.987Z,998.87
2018-03-30T06:12:09.443Z,998.86
2018-03-30T06:12:34.945Z,998.88
2018-03-30T06:13:00.396Z,998.87
2018-03-30T06:13:25.880Z,998.87
2018-03-30T06:13:51.368Z,998.88
2018-03-30T06:14:16.839Z,998.87
2018-03-30T06:14:42.332Z,998.89
2018-03-30T06:15:56.115Z,998.79
2018-03-30T06:16:21.600Z,998.83
2018-03-30T06:16:47.081Z,998.82
2018-03-30T06:17:12.567Z,998.81
2018-03-30T06:17:38.044Z,998.82
2018-03-30T06:18:03.468Z,998.8
2018-03-30T06:18:28.939Z,998.82
2018-03-30T06:18:54.392Z,998.83
2018-03-30T06:19:19.954Z,998.82
2018-03-30T06:19:45.408Z,998.81
2018-03-30T06:20:10.845Z,998.83
2018-03-30T06:20:36.333Z,998.86
2018-03-30T06:21:01.801Z,998.86
2018-03-30T06:21:27.230Z,998.85
2018-03-30T06:21:52.730Z,998.86
2018-03-30T06:22:18.165Z,998.84
2018-03-30T06:22:43.620Z,998.81
2018-03-30T06:23:09.072Z,998.79
2018-03-30T06:23:34.509Z,998.84
2018-03-30T06:24:00.028Z,998.79
2018-03-30T06:24:25.490Z,998.78
2018-03-30T06:24:50.995Z,998.79
2018-03-30T06:25:16.504Z,998.82
2018-03-30T06:25:41.927Z,998.8
2018-03-30T06:26:07.457Z,998.81
2018-03-30T06:26:32.890Z,998.8
2018-03-30T06:26:58.389Z,998.82
2018-03-30T06:27:23.862Z,998.75
2018-03-30T06:27:49.334Z,998.77
2018-03-30T06:28:14.801Z,998.79
2018-03-30T06:28:40.280Z,998.8
2018-03-30T06:29:05.740Z,998.78
2018-03-30T06:29:31.222Z,998.78
2018-03-30T06:29:56.686Z,998.81
2018-03-30T06:30:22.156Z,998.8
2018-03-30T06:30:47.671Z,998.78
2018-03-30T06:31:56.363Z,998.84
2018-03-30T06:32:21.850Z,998.83
2018-03-30T06:32:47.292Z,998.85
2018-03-30T06:33:12.763Z,998.79
2018-03-30T06:33:38.213Z,998.82
2018-03-30T06:34:03.723Z,998.78
2018-03-30T06:34:29.163Z,998.76
2018-03-30T06:34:54.724Z,998.77
2018-03-30T06:35:20.219Z,998.79
2018-03-30T06:35:45.718Z,998.79
2018-03-30T06:36:11.216Z,998.75
2018-03-30T06:36:36.695Z,998.8
2018-03-30T06:37:02.177Z,998.77
2018-03-30T06:37:27.650Z,998.77
2018-03-30T06:37:53.150Z,998.78
2018-03-30T06:38:18.667Z,998.82
2018-03-30T06:38:44.147Z,998.82
2018-03-30T06:39:09.645Z,998.79
2018-03-30T06:39:35.127Z,998.81
2018-03-30T06:40:00.633Z,998.85
2018-03-30T06:40:26.103Z,998.83
2018-03-30T06:40:51.604Z,998.82
2018-03-30T06:41:17.072Z,998.83
2018-03-30T06:41:42.566Z,998.81
2018-03-30T06:42:08.028Z,998.82
2018-03-30T06:42:33.570Z,998.82
2018-03-30T06:42:59.052Z,998.85
2018-03-30T06:43:24.567Z,998.85
2018-03-30T06:43:50.094Z,998.86
2018-03-30T06:44:48.631Z,998.88
2018-03-30T06:45:14.126Z,998.85
2018-03-30T06:45:39.635Z,998.86
2018-03-30T06:46:05.140Z,998.87
2018-03-30T06:46:30.578Z,998.81
2018-03-30T06:46:56.077Z,998.86
2018-03-30T06:48:14.958Z,998.82
2018-03-30T06:48:40.452Z,998.83
2018-03-30T06:49:05.926Z,998.83
2018-03-30T06:49:31.395Z,998.82
2018-03-30T06:49:56.900Z,998.81
2018-03-30T06:50:22.409Z,998.86
2018-03-30T06:50:47.840Z,998.88
2018-03-30T06:51:13.327Z,998.86
2018-03-30T06:51:38.818Z,998.87
2018-03-30T06:52:04.299Z,998.84
2018-03-30T06:52:29.794Z,998.86
2018-03-30T06:52:55.275Z,998.85
2018-03-30T06:53:20.784Z,998.88
2018-03-30T06:53:46.246Z,998.81
2018-03-30T06:54:11.713Z,998.84
2018-03-30T06:54:37.216Z,998.85
2018-03-30T06:55:02.679Z,998.86
2018-03-30T06:55:28.166Z,998.85
2018-03-30T06:55:53.654Z,998.88
2018-03-30T06:56:19.078Z,998.86
2018-03-30T06:56:44.562Z,998.9
2018-03-30T06:57:10.102Z,998.86
2018-03-30T06:57:35.588Z,998.85
2018-03-30T06:58:01.162Z,998.85
2018-03-30T06:58:26.553Z,998.86
2018-03-30T06:58:52.076Z,998.84
2018-03-30T06:59:17.521Z,998.84
2018-03-30T06:59:43.019Z,998.85
2018-03-30T07:00:08.539Z,998.85
2018-03-30T07:00:34.023Z,998.86
2018-03-30T07:00:59.486Z,998.83
2018-03-30T07:01:24.938Z,998.81
2018-03-30T07:01:50.447Z,998.83
2018-03-30T07:02:15.934Z,998.82
2018-03-30T07:02:41.423Z,998.81
2018-03-30T07:03:06.886Z,998.78
2018-03-30T07:03:32.365Z,998.82
2018-03-30T07:03:57.858Z,998.79
2018-03-30T07:04:23.361Z,998.78
2018-03-30T07:04:48.872Z,998.78
2018-03-30T07:05:14.348Z,998.76
2018-03-30T07:05:39.857Z,998.84
2018-03-30T07:06:05.316Z,998.75
2018-03-30T07:06:30.844Z,998.8
2018-03-30T07:06:56.355Z,998.76
2018-03-30T07:07:21.830Z,998.78
2018-03-30T07:07:47.301Z,998.79
2018-03-30T07:08:12.796Z,998.82
2018-03-30T07:08:38.233Z,998.78
2018-03-30T07:09:03.750Z,998.81
2018-03-30T07:09:29.208Z,998.78
2018-03-30T07:09:54.676Z,998.74
2018-03-30T07:10:20.179Z,998.75
2018-03-30T07:10:45.622Z,998.75
2018-03-30T07:11:11.110Z,998.77
2018-03-30T07:11:36.607Z,998.71
2018-03-30T07:12:02.101Z,998.71
2018-03-30T07:12:27.565Z,998.74
2018-03-30T07:12:53.043Z,998.75
2018-03-30T07:13:18.538Z,998.74
2018-03-30T07:13:43.983Z,998.79
2018-03-30T07:14:09.523Z,998.79
2018-03-30T07:14:35.020Z,998.74
2018-03-30T07:15:00.489Z,998.79
2018-03-30T07:15:25.951Z,998.77
2018-03-30T07:15:51.441Z,998.75
2018-03-30T07:16:16.878Z,998.78
2018-03-30T07:16:42.335Z,998.8
2018-03-30T07:17:07.872Z,998.79
2018-03-30T07:17:33.332Z,998.84
2018-03-30T07:17:58.856Z,998.83
2018-03-30T07:18:24.364Z,998.81
2018-03-30T07:18:49.804Z,998.85
2018-03-30T07:19:15.314Z,998.81
2018-03-30T07:19:40.773Z,998.82
2018-03-30T07:20:06.254Z,998.83
2018-03-30T07:20:31.745Z,998.83
2018-03-30T07:20:57.221Z,998.84
2018-03-30T07:21:22.734Z,998.82
2018-03-30T07:21:48.207Z,998.85
2018-03-30T07:22:13.652Z,998.83
2018-03-30T07:22:39.413Z,998.88
2018-03-30T07:23:04.994Z,998.86
2018-03-30T07:23:30.314Z,998.83
2018-03-30T07:23:55.790Z,998.83
2018-03-30T07:24:21.310Z,998.83
2018-03-30T07:24:46.807Z,998.86
2018-03-30T07:25:12.416Z,998.85
2018-03-30T07:25:37.968Z,998.85
2018-03-30T07:26:03.807Z,998.89
2018-03-30T07:26:29.443Z,998.89
2018-03-30T07:26:54.825Z,998.87
2018-03-30T07:27:20.245Z,998.91
2018-03-30T07:27:45.757Z,998.89
2018-03-30T07:28:11.256Z,998.88
2018-03-30T07:28:36.794Z,998.88
2018-03-30T07:29:02.218Z,998.87
2018-03-30T07:29:27.693Z,998.91
2018-03-30T07:30:42.313Z,998.85
2018-03-30T07:31:07.820Z,998.84
2018-03-30T07:31:33.299Z,998.86
2018-03-30T07:31:58.778Z,998.91
2018-03-30T07:32:24.252Z,998.83
2018-03-30T07:32:49.764Z,998.88
2018-03-30T07:33:15.536Z,998.89
2018-03-30T07:33:41.061Z,998.87
2018-03-30T07:34:06.617Z,998.89
2018-03-30T07:34:32.114Z,998.93
2018-03-30T07:34:57.623Z,998.88
2018-03-30T07:35:23.195Z,998.9
2018-03-30T07:35:48.617Z,998.9
2018-03-30T07:36:14.184Z,998.91
2018-03-30T07:36:39.674Z,998.84
2018-03-30T07:37:05.346Z,998.83
2018-03-30T07:37:30.893Z,998.84
2018-03-30T07:37:56.304Z,998.84
2018-03-30T07:38:21.826Z,998.82
2018-03-30T07:38:47.412Z,998.82
2018-03-30T07:39:12.891Z,998.8
2018-03-30T07:39:38.457Z,998.82
2018-03-30T07:40:03.976Z,998.8
2018-03-30T07:40:29.385Z,998.78
2018-03-30T07:40:54.902Z,998.75
2018-03-30T07:41:20.352Z,998.81
2018-03-30T07:41:45.912Z,998.8
2018-03-30T07:42:11.380Z,998.79
2018-03-30T07:42:36.879Z,998.79
2018-03-30T07:43:02.377Z,998.82
2018-03-30T07:43:27.877Z,998.8
2018-03-30T07:43:53.430Z,998.82
2018-03-30T07:44:18.852Z,998.8
2018-03-30T07:44:44.358Z,998.86
2018-03-30T07:45:09.771Z,998.79
2018-03-30T07:45:35.371Z,998.84
2018-03-30T07:46:00.835Z,998.84
2018-03-30T07:46:26.303Z,998.83
2018-03-30T07:46:51.760Z,998.83
2018-03-30T07:47:17.277Z,998.81
2018-03-30T07:47:42.747Z,998.79
2018-03-30T07:48:08.237Z,998.79
2018-03-30T07:48:33.708Z,998.82
2018-03-30T07:48:59.191Z,998.8
2018-03-30T07:49:24.737Z,998.77
2018-03-30T07:49:50.206Z,998.76
2018-03-30T07:50:15.664Z,998.76
2018-03-30T07:50:41.164Z,998.73
2018-03-30T07:51:06.636Z,998.73
2018-03-30T07:51:32.064Z,998.71
2018-03-30T07:51:57.528Z,998.66
2018-03-30T07:52:23.024Z,998.71
2018-03-30T07:52:48.533Z,998.74
2018-03-30T07:53:14.036Z,998.69
2018-03-30T07:53:39.521Z,998.63
2018-03-30T07:54:05.121Z,998.69
2018-03-30T07:54:30.550Z,998.68
2018-03-30T07:54:56.188Z,998.68
2018-03-30T07:55:21.759Z,998.67
2018-03-30T07:55:47.155Z,998.7
2018-03-30T07:56:12.701Z,998.67
2018-03-30T07:56:38.149Z,998.69
2018-03-30T07:57:03.679Z,998.67
2018-03-30T07:57:29.194Z,998.64
2018-03-30T07:57:54.660Z,998.68
2018-03-30T07:58:20.015Z,998.66
2018-03-30T07:58:45.587Z,998.67
2018-03-30T07:59:11.085Z,998.68
2018-03-30T07:59:36.651Z,998.66
2018-03-30T08:00:02.098Z,998.66
2018-03-30T08:00:27.561Z,998.67
2018-03-30T08:00:53.075Z,998.61
2018-03-30T08:01:18.557Z,998.66
2018-03-30T08:01:44.310Z,998.66
2018-03-30T08:02:09.746Z,998.67
2018-03-30T08:02:35.210Z,998.61
2018-03-30T08:03:00.703Z,998.64
2018-03-30T08:03:26.256Z,998.66
2018-03-30T08:03:51.668Z,998.62
2018-03-30T08:04:17.371Z,998.64
2018-03-30T08:04:42.918Z,998.64
2018-03-30T08:05:08.405Z,998.62
2018-03-30T08:05:33.862Z,998.65
2018-03-30T08:05:59.377Z,998.58
2018-03-30T08:06:24.909Z,998.66
2018-03-30T08:06:50.408Z,998.65
2018-03-30T08:07:15.860Z,998.61
2018-03-30T08:07:41.449Z,998.58
2018-03-30T08:08:06.875Z,998.6
2018-03-30T08:08:32.347Z,998.6
2018-03-30T08:08:57.858Z,998.56
2018-03-30T08:09:23.385Z,998.56
2018-03-30T08:09:48.889Z,998.58
2018-03-30T08:10:14.316Z,998.56
2018-03-30T08:10:39.877Z,998.57
2018-03-30T08:11:05.373Z,998.57
2018-03-30T08:11:30.878Z,998.54
2018-03-30T08:11:56.323Z,998.57
2018-03-30T08:12:21.818Z,998.54
2018-03-30T08:12:47.220Z,998.54
2018-03-30T08:13:12.845Z,998.57
2018-03-30T08:13:38.381Z,998.58
2018-03-30T08:14:03.927Z,998.56
2018-03-30T08:14:29.331Z,998.58
2018-03-30T08:14:54.936Z,998.54
2018-03-30T08:15:20.418Z,998.53
2018-03-30T08:15:45.827Z,998.55
2018-03-30T08:16:11.553Z,998.56
2018-03-30T08:16:37.012Z,998.6
2018-03-30T08:17:02.515Z,998.56
2018-03-30T08:17:27.986Z,998.5
2018-03-30T08:17:53.440Z,998.54
2018-03-30T08:18:18.947Z,998.51
2018-03-30T08:18:44.440Z,998.56
2018-03-30T08:19:09.915Z,998.57
2018-03-30T08:19:35.396Z,998.53
2018-03-30T08:20:00.895Z,998.54
2018-03-30T08:20:26.335Z,998.51
2018-03-30T08:20:51.963Z,998.52
2018-03-30T08:21:17.516Z,998.5
2018-03-30T08:21:43.072Z,998.5
2018-03-30T08:22:08.829Z,998.52
2018-03-30T08:22:34.397Z,998.48
2018-03-30T08:22:59.780Z,998.51
2018-03-30T08:23:25.221Z,998.52
2018-03-30T08:23:50.801Z,998.52
2018-03-30T08:24:16.244Z,998.43
2018-03-30T08:24:41.783Z,998.47
2018-03-30T08:25:07.194Z,998.48
2018-03-30T08:25:32.892Z,998.46
2018-03-30T08:25:58.345Z,998.46
2018-03-30T08:26:23.860Z,998.5
2018-03-30T08:26:49.304Z,998.4
2018-03-30T08:27:14.766Z,998.4
2018-03-30T08:27:40.277Z,998.48
2018-03-30T08:28:05.777Z,998.44
2018-03-30T08:28:31.239Z,998.46
2018-03-30T08:28:56.790Z,998.49
2018-03-30T08:29:22.372Z,998.42
2018-03-30T08:29:47.934Z,998.44
2018-03-30T08:30:13.357Z,998.41
2018-03-30T08:30:38.875Z,998.39
2018-03-30T08:31:04.993Z,998.42
2018-03-30T08:31:30.310Z,998.39
2018-03-30T08:31:55.768Z,998.39
2018-03-30T08:32:21.408Z,998.4
2018-03-30T08:32:46.964Z,998.35
2018-03-30T08:33:12.428Z,998.35
2018-03-30T08:33:38.201Z,998.34
2018-03-30T08:34:03.666Z,998.31
2018-03-30T08:34:29.203Z,998.35
2018-03-30T08:34:54.714Z,998.34
2018-03-30T08:35:20.388Z,998.33
2018-03-30T08:35:46.080Z,998.32
2018-03-30T08:36:11.608Z,998.34
2018-03-30T08:36:37.132Z,998.29
2018-03-30T08:37:02.590Z,998.3
2018-03-30T08:37:28.089Z,998.32
2018-03-30T08:37:53.583Z,998.32
2018-03-30T08:38:19.139Z,998.31
2018-03-30T08:38:44.553Z,998.3
2018-03-30T08:39:10.026Z,998.27
2018-03-30T08:39:35.553Z,998.3
2018-03-30T08:40:01.050Z,998.32
2018-03-30T08:40:26.610Z,998.27
2018-03-30T08:40:52.125Z,998.25
2018-03-30T08:41:17.588Z,998.29
2018-03-30T08:41:43.058Z,998.25
2018-03-30T08:42:08.652Z,998.2
2018-03-30T08:42:34.125Z,998.22
2018-03-30T08:42:59.617Z,998.2
2018-03-30T08:43:25.122Z,998.18
2018-03-30T08:43:50.525Z,998.19
2018-03-30T08:44:16.112Z,998.16
2018-03-30T08:44:41.540Z,998.2
2018-03-30T08:45:07.002Z,998.16
2018-03-30T08:45:32.498Z,998.16
2018-03-30T08:45:57.993Z,998.19
2018-03-30T08:46:23.452Z,998.16
2018-03-30T08:46:48.994Z,998.18
2018-03-30T08:47:14.628Z,998.19
2018-03-30T08:47:40.063Z,998.18
2018-03-30T08:48:05.591Z,998.17
2018-03-30T08:48:31.182Z,998.23
2018-03-30T08:48:56.726Z,998.18
2018-03-30T08:49:22.252Z,998.17
2018-03-30T08:49:47.725Z,998.18
2018-03-30T08:50:13.220Z,998.15
2018-03-30T08:50:38.717Z,998.13
2018-03-30T08:51:04.282Z,998.14
2018-03-30T08:51:29.726Z,998.13
2018-03-30T08:51:55.226Z,998.16
2018-03-30T08:52:20.688Z,998.16
2018-03-30T08:52:46.162Z,998.17
2018-03-30T08:53:11.674Z,998.17
2018-03-30T08:53:37.179Z,998.21
2018-03-30T08:54:02.668Z,998.19
2018-03-30T08:54:28.199Z,998.18
2018-03-30T08:54:53.694Z,998.19
2018-03-30T08:55:19.225Z,998.17
2018-03-30T08:55:44.665Z,998.15
2018-03-30T08:56:10.190Z,998.17
2018-03-30T08:56:35.756Z,998.13
2018-03-30T08:57:01.166Z,998.18
2018-03-30T08:57:26.799Z,998.15
2018-03-30T08:57:52.265Z,998.18
2018-03-30T08:58:17.728Z,998.16
2018-03-30T08:58:43.242Z,998.19
2018-03-30T08:59:08.758Z,998.22
2018-03-30T08:59:34.246Z,998.18
2018-03-30T08:59:59.769Z,998.12
2018-03-30T09:00:25.261Z,998.14
2018-03-30T09:00:50.790Z,998.15
2018-03-30T09:01:16.241Z,998.12
2018-03-30T09:01:41.691Z,998.14
2018-03-30T09:02:55.500Z,998.11
2018-03-30T09:03:21.004Z,998.13
2018-03-30T09:03:46.506Z,998.11
2018-03-30T09:04:11.969Z,998.04
2018-03-30T09:04:37.459Z,998.1
2018-03-30T09:05:02.945Z,998.05
2018-03-30T09:05:28.428Z,998.08
2018-03-30T09:05:53.945Z,998.04
2018-03-30T09:06:19.455Z,998.03
2018-03-30T09:06:44.948Z,998.05
2018-03-30T09:07:10.416Z,998.01
2018-03-30T09:07:35.887Z,998.01
2018-03-30T09:08:01.386Z,998
2018-03-30T09:08:26.902Z,997.96
2018-03-30T09:08:52.404Z,998.01
2018-03-30T09:09:17.903Z,997.96
2018-03-30T09:09:43.361Z,997.96
2018-03-30T09:10:08.860Z,997.92
2018-03-30T09:10:34.340Z,997.91
2018-03-30T09:10:59.813Z,997.93
2018-03-30T09:11:25.319Z,997.93
2018-03-30T09:11:50.799Z,997.94
2018-03-30T09:12:16.288Z,997.94
2018-03-30T09:12:41.786Z,997.93
2018-03-30T09:13:07.253Z,997.94
2018-03-30T09:13:32.734Z,997.9
2018-03-30T09:13:58.272Z,997.89
2018-03-30T09:14:23.689Z,997.92
2018-03-30T09:15:22.246Z,997.9
2018-03-30T09:15:47.741Z,997.89
2018-03-30T09:16:13.234Z,997.91
2018-03-30T09:16:38.732Z,997.94
2018-03-30T09:17:04.197Z,997.91
2018-03-30T09:17:29.665Z,997.95
2018-03-30T09:17:55.191Z,997.89
2018-03-30T09:18:20.651Z,997.94
2018-03-30T09:18:46.152Z,997.89
2018-03-30T09:19:11.626Z,997.9
2018-03-30T09:19:37.130Z,997.9
2018-03-30T09:20:02.695Z,997.89
2018-03-30T09:20:28.257Z,997.86
2018-03-30T09:21:36.923Z,997.88
2018-03-30T09:22:02.389Z,997.9
2018-03-30T09:22:27.868Z,997.86
2018-03-30T09:22:53.377Z,997.88
2018-03-30T09:23:18.902Z,997.83
2018-03-30T09:23:44.421Z,997.82
2018-03-30T09:24:09.913Z,997.83
2018-03-30T09:24:35.392Z,997.85
2018-03-30T09:25:00.869Z,997.79
2018-03-30T09:25:26.358Z,997.78
2018-03-30T09:25:51.842Z,997.8
2018-03-30T09:26:17.321Z,997.76
2018-03-30T09:26:42.864Z,997.78
2018-03-30T09:27:08.413Z,997.78
2018-03-30T09:27:33.867Z,997.75